Springfield, Canada
Current Conditions -  °F | °C
As of 4:00 PM on Friday 19 Dec 2014 (Local Time) from CYZX Reporting Station
Snow Showers Snow Showers  
Wind Chill: 25°   Ceiling: 1900
Heat Index: 32°   Visibility: 2.5mi
Dew Point: 32°   Wind: 8mph
Humidity: 100%   Direction: 340°NNW
Pressure: 29.8"   Gusts: NA
Location:  44.63°N, 64.85°W
Report Text: CYZX 192000Z 34007KT 2 1/2SM -SHSN FEW011 OVC019 00/00 A2980 RMK SF2SC6 /S01/ WNDY HILL 33012KT SLP094
Loading
Personal Weather Stations






























Interactive Weather Map New forecast layout! Learn more

10-Day Weather Forecast

Advertisements
Track Severe Weather on mobile